createdAt,value
2018-05-12T00:01:58.953Z,48.40
2018-05-12T00:04:26.451Z,43.90
2018-05-12T00:06:54.719Z,44.63
2018-05-12T00:09:22.208Z,50.38
2018-05-12T00:11:50.456Z,45.17
2018-05-12T00:14:17.959Z,43.83
2018-05-12T00:16:45.442Z,40.50
2018-05-12T00:19:12.948Z,52.58
2018-05-12T00:21:41.202Z,43.75
2018-05-12T00:24:08.697Z,47.62
2018-05-12T00:26:36.181Z,51.95
2018-05-12T00:29:03.668Z,51.88
2018-05-12T00:31:31.161Z,45.05
2018-05-12T00:33:59.405Z,48.97
2018-05-12T00:36:26.905Z,46.00
2018-05-12T00:38:55.150Z,41.58
2018-05-12T00:41:22.640Z,46.78
2018-05-12T00:43:50.893Z,46.50
2018-05-12T00:46:18.389Z,46.17
2018-05-12T00:48:46.635Z,40.75
2018-05-12T00:51:14.913Z,51.08
2018-05-12T00:53:42.393Z,54.22
2018-05-12T00:56:10.656Z,45.63
2018-05-12T00:58:38.911Z,47.67
2018-05-12T01:01:06.419Z,42.28
2018-05-12T01:03:33.910Z,39.10
2018-05-12T01:06:01.405Z,39.55
2018-05-12T01:08:28.910Z,48.05
2018-05-12T01:10:56.412Z,60.65
2018-05-12T01:13:23.895Z,51.70
2018-05-12T01:15:52.149Z,40.80
2018-05-12T01:18:19.623Z,46.40
2018-05-12T01:20:47.124Z,41.22
2018-05-12T01:23:14.593Z,51.08
2018-05-12T01:25:42.089Z,48.10
2018-05-12T01:28:09.566Z,49.42
2018-05-12T01:30:37.829Z,47.83
2018-05-12T01:33:05.310Z,51.97
2018-05-12T01:35:33.570Z,49.55
2018-05-12T01:38:01.821Z,54.20
2018-05-12T01:40:29.324Z,57.08
2018-05-12T01:42:57.574Z,50.60
2018-05-12T01:45:25.049Z,55.60
2018-05-12T01:47:53.304Z,59.22
2018-05-12T01:50:20.782Z,52.38
2018-05-12T01:52:49.782Z,48.33
2018-05-12T01:55:18.020Z,49.65
2018-05-12T01:57:45.528Z,47.05
2018-05-12T02:00:13.765Z,47.95
2018-05-12T02:02:41.261Z,52.15
2018-05-12T02:05:09.507Z,48.03
2018-05-12T02:07:36.993Z,50.60
2018-05-12T02:10:05.239Z,48.05
2018-05-12T02:12:32.726Z,42.83
2018-05-12T02:15:00.969Z,64.90
2018-05-12T02:17:28.463Z,73.30
2018-05-12T02:19:56.712Z,54.03
2018-05-12T02:22:24.201Z,47.80
2018-05-12T02:24:52.465Z,51.83
2018-05-12T02:27:20.729Z,52.45
2018-05-12T02:29:48.208Z,61.83
2018-05-12T02:32:16.469Z,54.13
2018-05-12T02:34:43.949Z,64.78
2018-05-12T02:37:12.205Z,57.13
2018-05-12T02:39:39.676Z,63.65
2018-05-12T02:42:07.939Z,60.20
2018-05-12T02:44:35.423Z,57.33
2018-05-12T02:47:03.687Z,47.17
2018-05-12T02:49:31.939Z,45.10
2018-05-12T02:52:00.952Z,59.40
2018-05-12T02:54:29.213Z,54.35
2018-05-12T02:56:56.709Z,45.50
2018-05-12T02:59:24.967Z,52.88
2018-05-12T03:01:53.216Z,49.58
2018-05-12T03:04:20.714Z,48.97
2018-05-12T03:06:48.961Z,58.00
2018-05-12T03:09:16.462Z,52.05
2018-05-12T03:11:44.712Z,46.67
2018-05-12T03:14:12.210Z,53.33
2018-05-12T03:16:39.694Z,58.65
2018-05-12T03:19:07.184Z,61.65
2018-05-12T03:21:34.679Z,50.08
2018-05-12T03:24:02.932Z,51.45
2018-05-12T03:26:31.178Z,55.97
2018-05-12T03:28:58.674Z,61.80
2018-05-12T03:31:26.921Z,65.57
2018-05-12T03:33:54.414Z,60.63
2018-05-12T03:36:22.661Z,63.25
2018-05-12T03:38:50.147Z,61.97
2018-05-12T03:41:18.435Z,48.85
2018-05-12T03:43:46.689Z,62.08
2018-05-12T03:46:14.169Z,62.42
2018-05-12T03:48:42.429Z,67.60
2018-05-12T03:51:11.409Z,54.13
2018-05-12T03:53:38.905Z,66.85
2018-05-12T03:56:06.395Z,49.67
2018-05-12T03:58:33.889Z,49.42
2018-05-12T04:01:01.369Z,67.93
2018-05-12T04:03:29.634Z,54.65
2018-05-12T04:06:08.829Z,57.20
2018-05-12T04:08:48.165Z,58.63
2018-05-12T04:11:27.496Z,59.95
2018-05-12T04:13:54.989Z,55.72
2018-05-12T04:16:22.470Z,54.08
2018-05-12T04:18:50.730Z,79.55
2018-05-12T04:21:18.206Z,71.15
2018-05-12T04:23:46.483Z,76.20
2018-05-12T04:26:14.726Z,78.05
2018-05-12T04:28:42.206Z,79.75
2018-05-12T04:31:11.313Z,78.12
2018-05-12T04:33:39.561Z,66.20
2018-05-12T04:36:07.057Z,62.00
2018-05-12T04:38:35.310Z,66.55
2018-05-12T04:41:02.805Z,77.37
2018-05-12T04:43:31.045Z,60.15
2018-05-12T04:45:58.537Z,61.63
2018-05-12T04:48:26.838Z,50.70
2018-05-12T04:50:54.337Z,64.82
2018-05-12T04:53:21.809Z,63.20
2018-05-12T04:55:50.822Z,72.00
2018-05-12T04:58:19.061Z,73.30
2018-05-12T05:00:47.539Z,66.40
2018-05-12T05:03:15.022Z,76.30
2018-05-12T05:05:42.513Z,89.05
2018-05-12T05:08:10.028Z,92.10
2018-05-12T05:10:37.513Z,89.95
2018-05-12T05:13:05.795Z,81.45
2018-05-12T05:15:33.341Z,96.87
2018-05-12T05:18:00.830Z,90.22
2018-05-12T05:20:29.089Z,75.43
2018-05-12T05:22:57.343Z,90.25
2018-05-12T05:25:24.841Z,79.32
2018-05-12T05:27:52.318Z,87.00
2018-05-12T05:30:19.814Z,82.82
2018-05-12T05:32:47.305Z,82.55
2018-05-12T05:35:15.652Z,77.25
2018-05-12T05:37:43.832Z,75.68
2018-05-12T05:40:11.339Z,78.05
2018-05-12T05:42:38.821Z,76.80
2018-05-12T05:45:06.318Z,72.50
2018-05-12T05:47:33.799Z,63.15
2018-05-12T05:50:02.071Z,80.32
2018-05-12T05:52:30.342Z,77.65
2018-05-12T05:54:58.611Z,65.85
2018-05-12T05:57:26.106Z,82.75
2018-05-12T05:59:53.598Z,73.18
2018-05-12T06:02:21.099Z,65.65
2018-05-12T06:07:42.549Z,64.37
2018-05-12T06:10:10.792Z,70.18
2018-05-12T06:12:38.297Z,63.67
2018-05-12T06:15:05.778Z,65.78
2018-05-12T06:17:33.284Z,68.53
2018-05-12T06:20:00.757Z,57.47
2018-05-12T06:22:29.037Z,53.33
2018-05-12T06:24:57.286Z,60.78
2018-05-12T06:27:24.790Z,63.45
2018-05-12T06:29:52.278Z,60.70
2018-05-12T06:32:19.773Z,55.12
2018-05-12T06:34:48.030Z,62.53
2018-05-12T06:37:15.533Z,56.35
2018-05-12T06:39:43.779Z,61.80
2018-05-12T06:42:11.273Z,61.70
2018-05-12T06:44:39.527Z,61.83
2018-05-12T06:47:08.534Z,62.25
2018-05-12T06:49:36.776Z,57.78
2018-05-12T06:52:04.277Z,59.03
2018-05-12T06:54:32.522Z,68.55
2018-05-12T06:57:00.025Z,57.70
2018-05-12T06:59:27.509Z,62.38
2018-05-12T07:01:55.005Z,67.50
2018-05-12T07:04:22.485Z,66.78
2018-05-12T07:06:50.751Z,71.35
2018-05-12T07:09:19.011Z,59.67
2018-05-12T07:11:46.509Z,63.90
2018-05-12T07:14:14.005Z,54.72
2018-05-12T07:16:41.489Z,66.40
2018-05-12T07:19:08.989Z,61.15
2018-05-12T07:21:37.242Z,61.28
2018-05-12T07:24:05.501Z,55.88
2018-05-12T07:26:32.985Z,63.20
2018-05-12T07:29:01.249Z,57.17
2018-05-12T07:31:28.734Z,60.10
2018-05-12T07:33:57.007Z,56.20
2018-05-12T07:36:25.256Z,56.17
2018-05-12T07:38:52.767Z,64.93
2018-05-12T07:41:20.249Z,65.80
2018-05-12T07:43:47.749Z,54.13
2018-05-12T07:46:16.006Z,53.05
2018-05-12T07:48:43.505Z,57.60
2018-05-12T07:51:10.993Z,52.67
2018-05-12T07:53:38.488Z,48.40
2018-05-12T07:56:05.969Z,52.42
2018-05-12T07:58:34.257Z,49.78
2018-05-12T08:01:02.510Z,53.05
2018-05-12T08:03:30.028Z,49.10
2018-05-12T08:05:58.309Z,49.35
2018-05-12T08:08:25.807Z,44.45
2018-05-12T08:10:53.293Z,56.83
2018-05-12T08:13:21.558Z,43.33
2018-05-12T08:15:49.807Z,49.58
2018-05-12T08:18:17.308Z,44.75
2018-05-12T08:20:44.793Z,45.30
2018-05-12T08:23:12.294Z,51.72
2018-05-12T08:25:39.781Z,50.05
2018-05-12T08:28:07.297Z,47.85
2018-05-12T08:30:34.780Z,44.42
2018-05-12T08:33:02.270Z,51.47
2018-05-12T08:35:29.772Z,58.63
2018-05-12T08:37:57.266Z,53.15
2018-05-12T08:40:25.678Z,59.45
2018-05-12T08:42:54.749Z,49.15
2018-05-12T08:45:22.263Z,47.80
2018-05-12T08:47:49.757Z,49.50
2018-05-12T08:50:18.149Z,41.00
2018-05-12T08:52:46.399Z,43.00
2018-05-12T08:55:14.746Z,44.85
2018-05-12T08:57:42.205Z,39.10
2018-05-12T09:00:09.709Z,43.05
2018-05-12T09:02:37.961Z,42.58
2018-05-12T09:05:05.548Z,43.25
2018-05-12T09:07:33.803Z,28.27
2018-05-12T09:10:01.312Z,32.58
2018-05-12T09:12:28.801Z,37.47
2018-05-12T09:14:56.309Z,32.40
2018-05-12T09:17:24.577Z,24.92
2018-05-12T09:19:52.862Z,25.52
2018-05-12T09:22:20.369Z,39.72
2018-05-12T09:24:47.881Z,30.83
2018-05-12T09:27:16.140Z,27.25
2018-05-12T09:29:43.654Z,31.42
2018-05-12T09:32:11.141Z,22.35
2018-05-12T09:34:38.653Z,22.15
2018-05-12T09:37:06.142Z,31.52
2018-05-12T09:39:33.662Z,28.98
2018-05-12T09:42:01.153Z,22.50
2018-05-12T09:44:28.661Z,35.13
2018-05-12T09:46:56.145Z,9.33
2018-05-12T09:49:23.650Z,12.63
2018-05-12T09:51:51.125Z,14.70
2018-05-12T09:54:18.633Z,15.60
2018-05-12T09:56:46.114Z,21.97
2018-05-12T09:59:13.598Z,12.93
2018-05-12T10:01:41.094Z,32.00
2018-05-12T10:04:09.345Z,17.40
2018-05-12T10:06:36.841Z,14.90
2018-05-12T10:09:06.049Z,8.83
2018-05-12T10:11:33.545Z,11.30
2018-05-12T10:14:01.021Z,11.03
2018-05-12T10:16:28.532Z,14.00
2018-05-12T10:18:56.048Z,15.20
2018-05-12T10:21:24.309Z,18.97
2018-05-12T10:23:51.804Z,21.17
2018-05-12T10:26:20.113Z,19.27
2018-05-12T10:28:48.333Z,21.87
2018-05-12T10:31:15.839Z,26.40
2018-05-12T10:33:43.332Z,21.00
2018-05-12T10:36:10.833Z,22.90
2018-05-12T10:38:39.085Z,23.70
2018-05-12T10:41:06.583Z,26.07
2018-05-12T10:43:34.078Z,29.13
2018-05-12T10:46:02.118Z,22.17
2018-05-12T10:48:29.605Z,23.70
2018-05-12T10:50:57.105Z,24.80
2018-05-12T10:53:24.590Z,27.33
2018-05-12T10:55:52.089Z,26.73
2018-05-12T10:58:19.577Z,31.47
2018-05-12T11:00:47.857Z,24.30
2018-05-12T11:03:15.341Z,20.57
2018-05-12T11:05:43.697Z,26.90
2018-05-12T11:08:11.181Z,23.70
2018-05-12T11:10:39.446Z,27.57
2018-05-12T11:13:07.697Z,22.17
2018-05-12T11:15:35.204Z,21.43
2018-05-12T11:18:02.697Z,25.20
2018-05-12T11:20:30.201Z,23.37
2018-05-12T11:22:58.472Z,27.50
2018-05-12T11:25:26.723Z,27.60
2018-05-12T11:27:54.221Z,30.93
2018-05-12T11:30:22.470Z,27.77
2018-05-12T11:32:49.975Z,20.60
2018-05-12T11:35:17.459Z,24.73
2018-05-12T11:37:44.970Z,17.10
2018-05-12T11:40:13.218Z,17.90
2018-05-12T11:42:40.718Z,15.77
2018-05-12T11:45:08.201Z,18.30
2018-05-12T11:47:35.700Z,19.87
2018-05-12T11:50:03.797Z,19.27
2018-05-12T11:52:32.057Z,15.10
2018-05-12T11:55:00.313Z,16.07
2018-05-12T11:57:27.808Z,17.00
2018-05-12T11:59:56.057Z,26.17
2018-05-12T12:02:23.563Z,12.20
2018-05-12T12:04:51.039Z,10.43
2018-05-12T12:07:18.538Z,11.30
2018-05-12T12:09:46.021Z,22.70
2018-05-12T12:12:14.281Z,10.90
2018-05-12T12:14:41.769Z,15.03
2018-05-12T12:17:10.039Z,10.53
2018-05-12T12:19:38.285Z,9.33
2018-05-12T12:22:05.782Z,14.57
2018-05-12T12:24:33.277Z,17.50
2018-05-12T12:27:00.772Z,13.40
2018-05-12T12:29:28.253Z,21.37
2018-05-12T12:31:56.521Z,10.63
2018-05-12T12:34:24.769Z,13.97
2018-05-12T12:36:53.038Z,10.03
2018-05-12T12:39:20.521Z,13.63
2018-05-12T12:41:48.028Z,10.50
2018-05-12T12:44:15.513Z,17.27
2018-05-12T12:46:43.005Z,14.70
2018-05-12T12:49:10.498Z,11.70
2018-05-12T12:51:38.023Z,14.83
2018-05-12T12:54:05.494Z,12.83
2018-05-12T12:56:33.741Z,14.63
2018-05-12T12:59:01.238Z,9.90
2018-05-12T13:01:29.476Z,8.80
2018-05-12T13:03:56.971Z,6.67
2018-05-12T13:06:25.210Z,6.87
2018-05-12T13:08:52.705Z,9.80
2018-05-12T13:11:20.979Z,8.77
2018-05-12T13:13:49.238Z,9.23
2018-05-12T13:16:16.722Z,14.03
2018-05-12T13:18:44.981Z,9.83
2018-05-12T13:21:12.462Z,11.40
2018-05-12T13:23:39.968Z,10.63
2018-05-12T13:26:07.440Z,8.27
2018-05-12T13:28:34.937Z,8.33
2018-05-12T13:31:03.172Z,9.60
2018-05-12T13:33:30.722Z,13.83
2018-05-12T13:35:58.165Z,6.20
2018-05-12T13:38:25.662Z,7.40
2018-05-12T13:40:53.142Z,10.27
2018-05-12T13:43:21.407Z,10.03
2018-05-12T13:45:49.303Z,6.73
2018-05-12T13:48:16.797Z,8.10
2018-05-12T13:50:44.280Z,10.23
2018-05-12T13:53:11.778Z,6.27
2018-05-12T13:55:39.287Z,6.13
2018-05-12T13:58:06.781Z,11.03
2018-05-12T14:00:35.025Z,7.60
2018-05-12T14:03:02.522Z,6.60
2018-05-12T14:05:30.773Z,10.03
2018-05-12T14:07:58.274Z,7.70
2018-05-12T14:10:25.758Z,7.00
2018-05-12T14:12:53.237Z,6.00
2018-05-12T14:15:20.735Z,7.97
2018-05-12T14:17:49.011Z,6.43
2018-05-12T14:20:16.525Z,7.40
2018-05-12T14:22:44.006Z,7.43
2018-05-12T14:25:11.510Z,5.37
2018-05-12T14:27:38.999Z,5.57
2018-05-12T14:30:06.499Z,7.70
2018-05-12T14:32:34.758Z,10.23
2018-05-12T14:35:02.257Z,7.23
2018-05-12T14:37:29.738Z,5.20
2018-05-12T14:39:57.240Z,6.30
2018-05-12T14:42:24.720Z,5.80
2018-05-12T14:44:52.982Z,16.10
2018-05-12T14:47:20.458Z,5.00
2018-05-12T14:49:48.712Z,7.33
2018-05-12T14:52:16.195Z,6.17
2018-05-12T14:54:44.465Z,7.10
2018-05-12T14:57:12.710Z,7.27
2018-05-12T14:59:40.210Z,8.13
2018-05-12T15:02:08.460Z,9.10
2018-05-12T15:04:36.040Z,14.77
2018-05-12T15:07:04.293Z,8.40
2018-05-12T15:09:31.794Z,10.13
2018-05-12T15:11:59.289Z,10.43
2018-05-12T15:14:26.797Z,8.17
2018-05-12T15:16:55.037Z,7.37
2018-05-12T15:19:22.537Z,11.27
2018-05-12T15:21:50.776Z,12.20
2018-05-12T15:24:18.269Z,10.53
2018-05-12T15:26:46.529Z,11.03
2018-05-12T15:29:14.029Z,6.50
2018-05-12T15:31:41.515Z,6.93
2018-05-12T15:34:09.009Z,13.07
2018-05-12T15:36:36.490Z,14.10
2018-05-12T15:39:04.754Z,9.30
2018-05-12T15:41:32.234Z,6.40
2018-05-12T15:44:00.521Z,6.67
2018-05-12T15:46:28.013Z,13.03
2018-05-12T15:48:55.494Z,6.70
2018-05-12T15:51:22.993Z,15.43
2018-05-12T15:53:50.468Z,7.07
2018-05-12T15:56:17.963Z,5.70
2018-05-12T15:58:45.453Z,15.40
2018-05-12T16:01:13.712Z,7.53
2018-05-12T16:03:41.202Z,10.83
2018-05-12T16:06:09.467Z,9.67
2018-05-12T16:08:37.708Z,8.20
2018-05-12T16:11:05.206Z,9.93
2018-05-12T16:13:33.461Z,5.07
2018-05-12T16:16:00.953Z,8.33
2018-05-12T16:18:28.441Z,8.27
2018-05-12T16:20:55.945Z,10.43
2018-05-12T16:23:24.217Z,5.43
2018-05-12T16:25:51.778Z,9.50
2018-05-12T16:28:19.206Z,12.27
2018-05-12T16:30:46.700Z,13.50
2018-05-12T16:33:14.177Z,8.57
2018-05-12T16:35:42.437Z,8.40
2018-05-12T16:38:09.941Z,11.53
2018-05-12T16:40:37.433Z,7.73
2018-05-12T16:43:04.917Z,11.00
2018-05-12T16:45:33.189Z,7.13
2018-05-12T16:48:00.665Z,9.57
2018-05-12T16:50:28.925Z,11.40
2018-05-12T16:52:57.185Z,10.10
2018-05-12T16:55:24.681Z,7.13
2018-05-12T16:57:52.925Z,19.13
2018-05-12T17:00:20.421Z,11.30
2018-05-12T17:02:48.661Z,14.47
2018-05-12T17:05:16.157Z,13.20
2018-05-12T17:07:43.649Z,5.83
2018-05-12T17:10:11.135Z,6.17
2018-05-12T17:12:38.633Z,9.53
2018-05-12T17:15:06.882Z,8.03
2018-05-12T17:17:34.376Z,5.77
2018-05-12T17:20:01.860Z,7.90
2018-05-12T17:22:29.368Z,6.73
2018-05-12T17:24:56.854Z,10.20
2018-05-12T17:27:25.117Z,10.60
2018-05-12T17:29:53.437Z,9.97
2018-05-12T17:32:20.869Z,10.43
2018-05-12T17:34:48.349Z,8.30
2018-05-12T17:37:15.850Z,14.70
2018-05-12T17:39:43.320Z,9.10
2018-05-12T17:42:11.586Z,6.73
2018-05-12T17:44:39.069Z,8.73
2018-05-12T17:47:07.336Z,6.07
2018-05-12T17:49:35.585Z,7.47
2018-05-12T17:52:03.086Z,10.70
2018-05-12T17:54:30.569Z,12.53
2018-05-12T17:56:58.069Z,13.07
2018-05-12T17:59:25.557Z,10.13
2018-05-12T18:01:53.825Z,17.40
2018-05-12T18:04:22.065Z,11.20
2018-05-12T18:06:49.576Z,15.57
2018-05-12T18:09:17.829Z,17.40
2018-05-12T18:11:45.337Z,27.20
2018-05-12T18:14:12.818Z,27.80
2018-05-12T18:16:40.326Z,10.57
2018-05-12T18:19:08.572Z,12.07
2018-05-12T18:21:36.069Z,16.10
2018-05-12T18:24:04.473Z,9.80
2018-05-12T18:26:31.984Z,18.20
2018-05-12T18:28:59.468Z,19.50
2018-05-12T18:31:27.052Z,17.70
2018-05-12T18:33:54.541Z,9.90
2018-05-12T18:36:22.041Z,16.27
2018-05-12T18:38:50.317Z,15.93
2018-05-12T18:41:18.571Z,14.20
2018-05-12T18:43:46.096Z,16.83
2018-05-12T18:46:13.581Z,13.13
2018-05-12T18:48:41.087Z,12.27
2018-05-12T18:51:08.576Z,11.12
2018-05-12T18:53:36.076Z,6.35
2018-05-12T18:56:03.563Z,10.10
2018-05-12T18:58:31.069Z,8.77
2018-05-12T19:00:58.560Z,22.42
2018-05-12T19:03:26.841Z,10.70
2018-05-12T19:05:55.105Z,11.18
2018-05-12T19:08:23.444Z,13.07
2018-05-12T19:10:51.653Z,11.38
2018-05-12T19:13:19.164Z,10.93
2018-05-12T19:15:46.640Z,21.65
2018-05-12T19:18:14.146Z,13.68
2018-05-12T19:20:42.401Z,18.83
2018-05-12T19:23:09.923Z,31.55
2018-05-12T19:25:37.481Z,11.30
2018-05-12T19:28:04.977Z,7.85
2018-05-12T19:30:32.465Z,10.52
2018-05-12T19:33:00.737Z,13.05
2018-05-12T19:35:28.989Z,15.85
2018-05-12T19:37:56.477Z,23.23
2018-05-12T19:40:24.734Z,11.52
2018-05-12T19:42:52.230Z,12.10
2018-05-12T19:45:19.715Z,20.58
2018-05-12T19:47:47.225Z,12.80
2018-05-12T19:50:14.701Z,12.82
2018-05-12T19:52:42.964Z,15.75
2018-05-12T19:55:11.950Z,16.87
2018-05-12T19:57:39.464Z,14.32
2018-05-12T20:00:06.948Z,12.35
2018-05-12T20:02:34.439Z,17.60
2018-05-12T20:05:02.690Z,18.58
2018-05-12T20:07:30.184Z,12.32
2018-05-12T20:09:58.442Z,14.95
2018-05-12T20:12:25.946Z,22.52
2018-05-12T20:14:53.426Z,15.65
2018-05-12T20:17:20.908Z,14.07
2018-05-12T20:19:48.410Z,21.23
2018-05-12T20:22:15.880Z,11.25
2018-05-12T20:24:43.386Z,12.25
2018-05-12T20:27:10.870Z,10.52
2018-05-12T20:29:39.126Z,15.52
2018-05-12T20:32:06.605Z,15.50
2018-05-12T20:34:34.874Z,13.30
2018-05-12T20:37:03.130Z,14.90
2018-05-12T20:39:30.629Z,15.35
2018-05-12T20:41:58.878Z,21.15
2018-05-12T20:44:26.370Z,13.60
2018-05-12T20:46:53.854Z,13.48
2018-05-12T20:49:21.348Z,12.75
2018-05-12T20:51:48.872Z,25.58
2018-05-12T20:54:17.177Z,18.58
2018-05-12T20:56:44.661Z,13.27
2018-05-12T20:59:12.165Z,11.50
2018-05-12T21:01:39.649Z,18.08
2018-05-12T21:04:07.146Z,16.83
2018-05-12T21:06:35.398Z,22.90
2018-05-12T21:09:02.899Z,17.85
2018-05-12T21:11:31.157Z,16.27
2018-05-12T21:13:59.417Z,10.48
2018-05-12T21:16:26.904Z,12.57
2018-05-12T21:18:55.161Z,11.45
2018-05-12T21:21:22.639Z,8.65
2018-05-12T21:23:51.020Z,11.85
2018-05-12T21:26:18.409Z,13.05
2018-05-12T21:28:45.916Z,8.57
2018-05-12T21:31:13.397Z,11.10
2018-05-12T21:33:41.661Z,12.70
2018-05-12T21:36:09.926Z,9.85
2018-05-12T21:38:37.412Z,7.15
2018-05-12T21:41:05.673Z,10.00
2018-05-12T21:43:33.923Z,6.87
2018-05-12T21:46:01.547Z,7.87
2018-05-12T21:48:29.720Z,8.77
2018-05-12T21:50:57.224Z,8.15
2018-05-12T21:53:24.703Z,12.45
2018-05-12T21:55:53.008Z,8.25
2018-05-12T21:58:20.461Z,5.03
2018-05-12T22:00:47.963Z,6.22
2018-05-12T22:03:15.443Z,7.20
2018-05-12T22:05:42.933Z,8.88
2018-05-12T22:08:11.271Z,7.70
2018-05-12T22:10:38.676Z,9.93
2018-05-12T22:13:06.150Z,9.35
2018-05-12T22:15:33.641Z,8.30
2018-05-12T22:18:01.121Z,6.78
2018-05-12T22:20:29.386Z,5.95
2018-05-12T22:22:56.861Z,9.15
2018-05-12T22:25:24.361Z,7.40
2018-05-12T22:27:51.843Z,7.85
2018-05-12T22:30:19.320Z,6.18
2018-05-12T22:32:46.804Z,7.18
2018-05-12T22:35:15.049Z,6.65
2018-05-12T22:37:42.546Z,9.05
2018-05-12T22:40:10.792Z,6.80
2018-05-12T22:42:38.282Z,9.07
2018-05-12T22:45:06.530Z,5.70
2018-05-12T22:47:34.029Z,8.40
2018-05-12T22:50:02.264Z,6.37
2018-05-12T22:52:29.754Z,7.37
2018-05-12T22:54:57.998Z,8.48
2018-05-12T22:57:25.493Z,6.50
2018-05-12T22:59:53.741Z,8.52
2018-05-12T23:02:21.245Z,9.20
2018-05-12T23:04:48.721Z,8.10
2018-05-12T23:07:16.221Z,10.18
2018-05-12T23:09:43.705Z,7.97
2018-05-12T23:12:11.974Z,10.95
2018-05-12T23:14:40.211Z,8.55
2018-05-12T23:17:07.705Z,8.80
2018-05-12T23:19:35.185Z,11.10
2018-05-12T23:22:03.453Z,12.52
2018-05-12T23:24:31.705Z,10.95
2018-05-12T23:26:59.207Z,9.00
2018-05-12T23:29:26.704Z,10.65
2018-05-12T23:31:54.207Z,13.05
2018-05-12T23:34:22.453Z,12.77
2018-05-12T23:36:49.954Z,11.73
2018-05-12T23:39:17.435Z,10.65
2018-05-12T23:41:44.953Z,14.43
2018-05-12T23:44:13.200Z,11.00
2018-05-12T23:46:40.681Z,12.75
2018-05-12T23:49:08.295Z,12.90
2018-05-12T23:51:35.797Z,11.75
2018-05-12T23:54:03.288Z,14.15
2018-05-12T23:56:31.534Z,13.02
2018-05-12T23:58:59.029Z,16.17
